createdAt,value
2022-10-25T00:00:39.839Z,3.63
2022-10-25T00:03:11.366Z,3.60
2022-10-25T00:05:39.240Z,3.85
2022-10-25T00:08:06.292Z,4.18
2022-10-25T00:10:33.869Z,4.43
2022-10-25T00:13:00.310Z,4.07
2022-10-25T00:15:27.171Z,3.78
2022-10-25T00:17:53.793Z,4.43
2022-10-25T00:20:20.620Z,4.03
2022-10-25T00:22:47.424Z,4.00
2022-10-25T00:25:14.189Z,4.20
2022-10-25T00:27:40.638Z,3.70
2022-10-25T00:30:08.189Z,4.28
2022-10-25T00:32:35.129Z,4.25
2022-10-25T00:35:01.973Z,4.10
2022-10-25T00:37:28.525Z,3.53
2022-10-25T00:39:54.931Z,3.67
2022-10-25T00:42:24.438Z,3.75
2022-10-25T00:45:02.101Z,4.15
2022-10-25T00:47:32.810Z,4.32
2022-10-25T00:50:22.872Z,4.33
2022-10-25T00:52:53.484Z,4.32
2022-10-25T00:55:24.008Z,3.97
2022-10-25T00:57:56.702Z,4.50
2022-10-25T01:00:23.219Z,5.65
2022-10-25T01:02:49.813Z,3.92
2022-10-25T01:08:57.572Z,4.63
2022-10-25T01:11:25.173Z,4.47
2022-10-25T01:13:52.426Z,4.13
2022-10-25T01:16:28.323Z,4.25
2022-10-25T01:19:11.697Z,4.10
2022-10-25T01:21:50.813Z,4.38
2022-10-25T01:24:56.365Z,3.85
2022-10-25T01:27:44.580Z,4.20
2022-10-25T01:30:23.711Z,4.22
2022-10-25T01:33:08.586Z,4.45
2022-10-25T01:39:04.509Z,4.43
2022-10-25T01:41:41.767Z,4.20
2022-10-25T01:44:29.109Z,3.97
2022-10-25T01:47:04.152Z,4.15
2022-10-25T01:49:44.347Z,3.92
2022-10-25T01:52:10.807Z,4.18
2022-10-25T01:54:37.364Z,4.38
2022-10-25T01:57:15.296Z,4.38
2022-10-25T01:59:56.127Z,5.03
2022-10-25T02:02:36.975Z,3.80
2022-10-25T02:05:25.109Z,4.78
2022-10-25T02:08:03.426Z,3.83
2022-10-25T02:10:40.463Z,4.65
2022-10-25T02:13:27.069Z,4.07
2022-10-25T02:16:09.306Z,3.88
2022-10-25T02:18:39.522Z,3.47
2022-10-25T02:21:06.878Z,3.83
2022-10-25T02:23:36.074Z,5.03
2022-10-25T02:26:06.017Z,4.25
2022-10-25T02:28:35.861Z,4.00
2022-10-25T02:31:02.397Z,3.67
2022-10-25T02:33:29.220Z,3.65
2022-10-25T02:36:09.451Z,3.33
2022-10-25T02:38:36.221Z,3.75
2022-10-25T02:41:04.436Z,4.40
2022-10-25T02:43:30.883Z,3.88
2022-10-25T02:45:57.344Z,4.50
2022-10-25T02:48:23.865Z,3.67
2022-10-25T02:50:50.388Z,3.85
2022-10-25T02:53:16.819Z,3.85
2022-10-25T02:55:43.244Z,3.78
2022-10-25T02:58:09.778Z,3.90
2022-10-25T03:00:36.249Z,4.10
2022-10-25T03:03:02.785Z,3.55
2022-10-25T03:05:29.177Z,3.92
2022-10-25T03:07:55.600Z,3.83
2022-10-25T03:10:21.993Z,3.35
2022-10-25T03:12:48.720Z,3.72
2022-10-25T03:15:15.587Z,3.40
2022-10-25T03:17:42.035Z,3.40
2022-10-25T03:20:09.087Z,3.17
2022-10-25T03:22:35.486Z,3.72
2022-10-25T03:25:01.918Z,3.13
2022-10-25T03:27:28.354Z,4.18
2022-10-25T03:29:54.868Z,3.63
2022-10-25T03:32:21.261Z,4.22
2022-10-25T03:34:47.660Z,3.05
2022-10-25T03:37:14.061Z,3.67
2022-10-25T03:39:40.662Z,3.58
2022-10-25T03:42:07.041Z,3.50
2022-10-25T03:44:33.479Z,3.03
2022-10-25T03:46:59.869Z,3.47
2022-10-25T03:49:26.580Z,3.13
2022-10-25T03:51:57.046Z,3.22
2022-10-25T03:54:29.124Z,2.85
2022-10-25T03:56:55.885Z,3.42
2022-10-25T03:59:22.285Z,3.33
2022-10-25T04:01:49.012Z,3.10
2022-10-25T04:04:15.640Z,3.47
2022-10-25T04:06:42.047Z,3.20
2022-10-25T04:09:08.536Z,2.83
2022-10-25T04:11:35.054Z,2.85
2022-10-25T04:14:01.689Z,2.60
2022-10-25T04:16:28.709Z,2.50
2022-10-25T04:18:55.274Z,2.90
2022-10-25T04:21:21.978Z,2.60
2022-10-25T04:23:49.844Z,2.63
2022-10-25T04:26:20.264Z,2.70
2022-10-25T04:28:51.582Z,2.78
2022-10-25T04:31:18.528Z,2.80
2022-10-25T04:33:51.942Z,2.33
2022-10-25T04:36:18.799Z,3.67
2022-10-25T04:38:51.424Z,2.42
2022-10-25T04:41:18.769Z,2.70
2022-10-25T04:43:45.973Z,2.63
2022-10-25T04:46:13.329Z,3.20
2022-10-25T04:48:41.263Z,2.45
2022-10-25T04:51:08.746Z,2.85
2022-10-25T04:53:35.222Z,2.60
2022-10-25T04:56:09.976Z,2.05
2022-10-25T04:58:36.786Z,2.58
2022-10-25T05:01:09.168Z,3.00
2022-10-25T05:03:35.886Z,2.97
2022-10-25T05:06:14.563Z,2.85
2022-10-25T05:08:43.191Z,3.63
2022-10-25T05:11:11.752Z,3.22
2022-10-25T05:13:39.449Z,3.03
2022-10-25T05:16:07.029Z,2.63
2022-10-25T05:18:34.565Z,2.53
2022-10-25T05:21:04.701Z,3.17
2022-10-25T05:23:32.710Z,2.20
2022-10-25T05:26:13.698Z,2.60
2022-10-25T05:28:41.919Z,2.05
2022-10-25T05:31:22.613Z,2.30
2022-10-25T05:33:51.517Z,1.98
2022-10-25T05:36:18.418Z,2.35
2022-10-25T05:38:44.941Z,2.50
2022-10-25T05:41:13.290Z,3.45
2022-10-25T05:43:40.161Z,2.42
2022-10-25T05:46:10.752Z,3.10
2022-10-25T05:48:37.997Z,3.58
2022-10-25T05:51:36.581Z,3.00
2022-10-25T05:54:15.013Z,2.90
2022-10-25T05:56:42.762Z,2.05
2022-10-25T05:59:14.432Z,2.30
2022-10-25T06:01:46.201Z,2.55
2022-10-25T06:04:13.640Z,2.20
2022-10-25T06:06:41.422Z,2.00
2022-10-25T06:09:08.552Z,2.65
2022-10-25T06:11:35.399Z,2.20
2022-10-25T06:14:01.982Z,2.10
2022-10-25T06:16:28.706Z,2.67
2022-10-25T06:18:55.248Z,2.60
2022-10-25T06:21:24.449Z,2.58
2022-10-25T06:23:51.585Z,2.08
2022-10-25T06:26:26.898Z,2.10
2022-10-25T06:28:59.280Z,2.45
2022-10-25T06:31:26.657Z,2.13
2022-10-25T06:33:53.151Z,2.65
2022-10-25T06:36:22.464Z,2.00
2022-10-25T06:38:50.304Z,2.22
2022-10-25T06:41:20.229Z,1.92
2022-10-25T06:43:47.476Z,2.20
2022-10-25T06:46:24.148Z,2.30
2022-10-25T06:48:52.488Z,2.40
2022-10-25T06:51:19.279Z,3.65
2022-10-25T06:53:46.623Z,2.88
2022-10-25T06:56:15.003Z,2.67
2022-10-25T06:58:42.006Z,2.50
2022-10-25T07:01:13.074Z,1.95
2022-10-25T07:03:40.183Z,2.70
2022-10-25T07:06:14.713Z,2.45
2022-10-25T07:08:43.460Z,2.75
2022-10-25T07:11:15.061Z,2.63
2022-10-25T07:16:11.220Z,2.40
2022-10-25T07:18:38.010Z,2.30
2022-10-25T07:21:11.091Z,2.78
2022-10-25T07:23:42.032Z,2.70
2022-10-25T07:26:13.113Z,1.67
2022-10-25T07:28:40.728Z,2.75
2022-10-25T07:31:08.065Z,3.63
2022-10-25T07:33:34.479Z,2.50
2022-10-25T07:36:11.144Z,2.50
2022-10-25T07:38:38.503Z,3.05
2022-10-25T07:41:05.606Z,3.05
2022-10-25T07:43:32.129Z,2.85
2022-10-25T07:45:58.531Z,3.85
2022-10-25T07:48:25.036Z,2.28
2022-10-25T07:50:51.607Z,3.25
2022-10-25T07:53:18.414Z,2.78
2022-10-25T07:55:55.676Z,2.72
2022-10-25T07:58:22.401Z,3.05
2022-10-25T08:00:49.063Z,2.90
2022-10-25T08:03:16.902Z,2.70
2022-10-25T08:05:45.296Z,3.22
2022-10-25T08:08:12.485Z,2.38
2022-10-25T08:10:39.022Z,2.88
2022-10-25T08:13:05.455Z,2.38
2022-10-25T08:15:31.890Z,2.10
2022-10-25T08:18:02.146Z,1.55
2022-10-25T08:20:49.571Z,2.20
2022-10-25T08:23:16.069Z,2.55
2022-10-25T08:25:42.635Z,2.65
2022-10-25T08:28:09.331Z,3.10
2022-10-25T08:30:35.792Z,2.90
2022-10-25T08:33:02.383Z,2.40
2022-10-25T08:35:28.871Z,2.05
2022-10-25T08:37:55.278Z,2.30
2022-10-25T08:40:26.571Z,2.42
2022-10-25T08:43:15.308Z,2.90
2022-10-25T08:45:53.984Z,1.92
2022-10-25T08:48:26.475Z,2.05
2022-10-25T08:50:57.708Z,2.42
2022-10-25T08:53:30.214Z,2.50
2022-10-25T08:56:15.200Z,2.63
2022-10-25T08:58:49.687Z,2.85
2022-10-25T09:01:25.102Z,2.38
2022-10-25T09:03:51.691Z,2.55
2022-10-25T09:06:55.580Z,2.30
2022-10-25T09:09:34.985Z,2.63
2022-10-25T09:12:16.262Z,2.97
2022-10-25T09:15:29.184Z,3.17
2022-10-25T09:17:55.576Z,3.47
2022-10-25T09:20:29.678Z,3.55
2022-10-25T09:23:08.242Z,2.95
2022-10-25T09:25:47.366Z,3.45
2022-10-25T09:28:25.102Z,2.33
2022-10-25T09:30:57.245Z,2.20
2022-10-25T09:33:30.359Z,3.42
2022-10-25T09:35:58.654Z,2.17
2022-10-25T09:38:34.666Z,2.50
2022-10-25T09:41:16.397Z,2.28
2022-10-25T09:46:18.162Z,2.28
2022-10-25T09:49:00.977Z,2.33
2022-10-25T09:51:35.951Z,2.63
2022-10-25T09:54:13.551Z,2.08
2022-10-25T09:56:40.196Z,2.08
2022-10-25T09:59:08.380Z,2.13
2022-10-25T10:01:38.552Z,2.50
2022-10-25T10:04:24.661Z,2.17
2022-10-25T10:06:53.700Z,2.00
2022-10-25T10:09:20.351Z,2.03
2022-10-25T10:11:48.716Z,2.33
2022-10-25T10:14:26.967Z,2.13
2022-10-25T10:16:56.247Z,2.00
2022-10-25T10:19:29.882Z,1.90
2022-10-25T10:22:00.625Z,2.40
2022-10-25T10:24:30.181Z,2.17
2022-10-25T10:27:07.509Z,2.05
2022-10-25T10:29:39.318Z,2.72
2022-10-25T10:32:22.588Z,2.00
2022-10-25T10:34:55.071Z,3.05
2022-10-25T10:37:23.983Z,2.47
2022-10-25T10:39:53.203Z,2.55
2022-10-25T10:45:04.338Z,2.67
2022-10-25T10:47:36.948Z,2.20
2022-10-25T10:50:13.836Z,2.15
2022-10-25T10:52:44.515Z,2.53
2022-10-25T10:55:35.345Z,1.97
2022-10-25T10:58:05.655Z,1.95
2022-10-25T11:00:33.542Z,2.10
2022-10-25T11:03:00.763Z,2.60
2022-10-25T11:05:31.529Z,2.00
2022-10-25T11:08:17.293Z,1.17
2022-10-25T11:10:43.719Z,2.03
2022-10-25T11:13:20.874Z,2.70
2022-10-25T11:16:04.340Z,2.33
2022-10-25T11:18:42.378Z,2.22
2022-10-25T11:21:25.605Z,2.35
2022-10-25T11:24:15.082Z,2.17
2022-10-25T11:27:19.657Z,2.42
2022-10-25T11:29:48.751Z,2.13
2022-10-25T11:32:20.979Z,2.28
2022-10-25T11:34:53.273Z,2.20
2022-10-25T11:37:29.849Z,2.13
2022-10-25T11:40:16.653Z,2.67
2022-10-25T11:43:04.696Z,2.42
2022-10-25T11:45:49.762Z,2.20
2022-10-25T11:48:34.973Z,2.05
2022-10-25T11:51:35.165Z,1.80
2022-10-25T11:54:23.734Z,1.63
2022-10-25T11:57:12.017Z,4.43
2022-10-25T11:59:49.885Z,3.75
2022-10-25T12:02:34.388Z,2.20
2022-10-25T12:05:19.626Z,2.60
2022-10-25T12:07:48.721Z,1.77
2022-10-25T12:10:23.721Z,1.92
2022-10-25T12:12:55.803Z,2.10
2022-10-25T12:15:39.251Z,2.45
2022-10-25T12:18:09.960Z,2.47
2022-10-25T12:20:37.206Z,2.73
2022-10-25T12:23:10.629Z,3.72
2022-10-25T12:26:02.129Z,3.15
2022-10-25T12:28:48.593Z,5.20
2022-10-25T12:31:27.288Z,4.72
2022-10-25T12:34:03.703Z,3.72
2022-10-25T12:36:39.338Z,6.60
2022-10-25T12:39:45.066Z,2.25
2022-10-25T12:42:35.865Z,4.20
2022-10-25T12:45:14.246Z,4.65
2022-10-25T12:47:59.539Z,3.72
2022-10-25T12:50:50.398Z,3.42
2022-10-25T12:53:53.886Z,2.97
2022-10-25T12:56:38.401Z,2.65
2022-10-25T12:59:44.607Z,2.92
2022-10-25T13:02:43.216Z,2.70
2022-10-25T13:05:47.198Z,2.78
2022-10-25T13:08:17.921Z,4.25
2022-10-25T13:10:50.313Z,2.50
2022-10-25T13:13:23.544Z,2.28
2022-10-25T13:15:52.939Z,2.20
2022-10-25T13:18:31.559Z,2.35
2022-10-25T13:20:59.399Z,2.20
2022-10-25T13:23:58.379Z,2.30
2022-10-25T13:26:27.137Z,2.47
2022-10-25T13:28:56.388Z,2.85
2022-10-25T13:31:30.147Z,1.80
2022-10-25T13:34:14.562Z,2.17
2022-10-25T13:36:52.577Z,2.72
2022-10-25T13:39:43.500Z,2.33
2022-10-25T13:42:16.142Z,2.25
2022-10-25T13:45:04.346Z,2.13
2022-10-25T13:47:33.749Z,1.95
2022-10-25T13:50:00.631Z,1.95
2022-10-25T13:52:33.997Z,2.15
2022-10-25T13:55:06.188Z,2.58
2022-10-25T13:57:52.749Z,2.40
2022-10-25T14:00:57.771Z,2.20
2022-10-25T14:03:46.069Z,2.10
2022-10-25T14:06:26.169Z,2.58
2022-10-25T14:09:11.043Z,2.22
2022-10-25T14:11:48.475Z,2.70
2022-10-25T14:14:56.752Z,2.10
2022-10-25T14:17:37.629Z,2.00
2022-10-25T14:20:23.035Z,2.40
2022-10-25T14:23:00.273Z,2.13
2022-10-25T14:25:39.679Z,1.88
2022-10-25T14:28:17.461Z,1.80
2022-10-25T14:30:46.975Z,1.80
2022-10-25T14:33:19.479Z,2.38
2022-10-25T14:35:49.203Z,1.65
2022-10-25T14:38:19.010Z,2.10
2022-10-25T14:41:03.747Z,2.90
2022-10-25T14:43:38.130Z,2.40
2022-10-25T14:46:15.417Z,2.75
2022-10-25T14:48:47.465Z,2.30
2022-10-25T14:51:21.533Z,2.53
2022-10-25T14:53:53.533Z,2.53
2022-10-25T14:56:42.246Z,3.13
2022-10-25T14:59:29.321Z,2.60
2022-10-25T15:02:06.008Z,2.45
2022-10-25T15:04:38.562Z,2.53
2022-10-25T15:07:06.389Z,2.47
2022-10-25T15:09:48.991Z,2.35
2022-10-25T15:12:17.137Z,3.60
2022-10-25T15:14:43.876Z,2.65
2022-10-25T15:17:22.617Z,3.17
2022-10-25T15:22:37.243Z,3.20
2022-10-25T15:25:22.526Z,3.20
2022-10-25T15:27:54.744Z,3.78
2022-10-25T15:30:36.661Z,3.42
2022-10-25T15:33:05.135Z,3.45
2022-10-25T15:35:38.671Z,3.47
2022-10-25T15:38:05.759Z,2.92
2022-10-25T15:40:32.169Z,2.65
2022-10-25T15:42:58.545Z,3.45
2022-10-25T15:45:25.015Z,3.85
2022-10-25T15:47:53.404Z,3.78
2022-10-25T15:50:20.028Z,3.80
2022-10-25T15:52:46.786Z,3.17
2022-10-25T15:55:23.056Z,3.50
2022-10-25T15:57:50.407Z,4.15
2022-10-25T16:00:25.533Z,4.45
2022-10-25T16:02:54.637Z,6.55
2022-10-25T16:05:35.673Z,9.98
2022-10-25T16:08:02.674Z,5.80
2022-10-25T16:10:29.839Z,3.45
2022-10-25T16:13:03.965Z,3.65
2022-10-25T16:15:31.171Z,4.30
2022-10-25T16:17:57.756Z,4.03
2022-10-25T16:20:27.539Z,4.72
2022-10-25T16:22:55.498Z,5.45
2022-10-25T16:25:27.921Z,5.45
2022-10-25T16:27:58.596Z,5.43
2022-10-25T16:30:27.081Z,4.22
2022-10-25T16:32:53.500Z,4.75
2022-10-25T16:35:24.182Z,5.53
2022-10-25T16:37:51.714Z,3.60
2022-10-25T16:40:19.748Z,5.15
2022-10-25T16:42:47.092Z,4.72
2022-10-25T16:45:27.532Z,4.70
2022-10-25T16:47:57.670Z,5.35
2022-10-25T16:50:26.031Z,5.60
2022-10-25T16:52:54.517Z,6.15
2022-10-25T16:55:21.435Z,6.72
2022-10-25T17:00:15.399Z,6.60
2022-10-25T17:02:41.962Z,7.93
2022-10-25T17:05:17.722Z,8.10
2022-10-25T17:07:45.658Z,6.90
2022-10-25T17:10:14.225Z,7.20
2022-10-25T17:12:55.625Z,7.68
2022-10-25T17:15:22.104Z,7.85
2022-10-25T17:17:48.749Z,7.70
2022-10-25T17:20:17.200Z,7.53
2022-10-25T17:22:44.160Z,7.85
2022-10-25T17:25:11.295Z,8.55
2022-10-25T17:27:39.886Z,7.55
2022-10-25T17:30:08.052Z,7.28
2022-10-25T17:32:34.545Z,7.50
2022-10-25T17:35:01.346Z,7.13
2022-10-25T17:37:28.216Z,8.20
2022-10-25T17:39:54.745Z,7.28
2022-10-25T17:42:21.176Z,7.57
2022-10-25T17:44:47.751Z,7.05
2022-10-25T17:47:14.910Z,6.97
2022-10-25T17:49:41.647Z,7.53
2022-10-25T17:52:09.509Z,6.95
2022-10-25T17:54:37.517Z,7.22
2022-10-25T17:57:05.743Z,7.60
2022-10-25T17:59:32.854Z,7.97
2022-10-25T18:01:59.651Z,8.40
2022-10-25T18:04:26.227Z,9.15
2022-10-25T18:06:52.672Z,8.35
2022-10-25T18:09:19.353Z,7.70
2022-10-25T18:11:45.896Z,7.22
2022-10-25T18:14:12.360Z,6.60
2022-10-25T18:16:38.855Z,6.93
2022-10-25T18:19:06.250Z,6.15
2022-10-25T18:21:33.322Z,5.60
2022-10-25T18:24:02.188Z,5.80
2022-10-25T18:26:29.148Z,5.93
2022-10-25T18:28:57.625Z,5.47
2022-10-25T18:31:26.972Z,6.05
2022-10-25T18:33:59.007Z,5.20
2022-10-25T18:36:27.610Z,5.63
2022-10-25T18:38:54.671Z,5.47
2022-10-25T18:41:28.128Z,5.80
2022-10-25T18:43:55.827Z,5.75
2022-10-25T18:46:23.511Z,6.88
2022-10-25T18:48:51.575Z,5.93
2022-10-25T18:51:19.509Z,6.45
2022-10-25T18:53:45.957Z,6.65
2022-10-25T18:56:17.101Z,6.28
2022-10-25T18:58:46.654Z,5.95
2022-10-25T19:01:15.525Z,6.70
2022-10-25T19:03:42.788Z,6.35
2022-10-25T19:06:09.885Z,7.30
2022-10-25T19:08:37.176Z,7.07
2022-10-25T19:11:08.958Z,6.63
2022-10-25T19:13:36.113Z,6.97
2022-10-25T19:16:02.845Z,7.05
2022-10-25T19:18:31.096Z,6.38
2022-10-25T19:21:06.333Z,7.65
2022-10-25T19:23:33.050Z,6.72
2022-10-25T19:26:08.388Z,6.95
2022-10-25T19:28:34.936Z,6.32
2022-10-25T19:31:06.574Z,7.35
2022-10-25T19:36:07.831Z,6.55
2022-10-25T19:38:38.814Z,7.28
2022-10-25T19:41:08.170Z,6.97
2022-10-25T19:43:36.085Z,8.02
2022-10-25T19:46:05.096Z,7.65
2022-10-25T19:48:32.833Z,8.63
2022-10-25T19:51:07.801Z,8.25
2022-10-25T19:53:34.626Z,8.32
2022-10-25T19:56:03.258Z,8.10
2022-10-25T19:58:29.862Z,8.55
2022-10-25T20:01:20.413Z,8.68
2022-10-25T20:03:50.669Z,8.88
2022-10-25T20:06:24.398Z,8.10
2022-10-25T20:08:52.233Z,9.00
2022-10-25T20:11:18.980Z,9.02
2022-10-25T20:13:45.957Z,9.55
2022-10-25T20:16:13.755Z,10.48
2022-10-25T20:18:41.487Z,11.63
2022-10-25T20:21:17.446Z,8.43
2022-10-25T20:23:49.270Z,8.65
2022-10-25T20:26:18.808Z,9.43
2022-10-25T20:28:45.739Z,9.30
2022-10-25T20:31:12.779Z,9.55
2022-10-25T20:33:40.309Z,9.30
2022-10-25T20:36:08.802Z,9.40
2022-10-25T20:38:36.748Z,8.43
2022-10-25T20:41:24.138Z,9.23
2022-10-25T20:43:55.930Z,9.13
2022-10-25T20:46:24.334Z,9.32
2022-10-25T20:48:51.345Z,9.98
2022-10-25T20:51:18.082Z,9.57
2022-10-25T20:53:45.775Z,9.02
2022-10-25T20:56:13.151Z,9.63
2022-10-25T20:58:39.678Z,8.57
2022-10-25T21:01:06.370Z,9.93
2022-10-25T21:03:33.647Z,9.30
2022-10-25T21:06:03.320Z,9.93
2022-10-25T21:08:30.572Z,9.50
2022-10-25T21:11:01.795Z,9.13
2022-10-25T21:13:33.585Z,9.07
2022-10-25T21:16:06.006Z,9.32
2022-10-25T21:18:32.794Z,9.52
2022-10-25T21:21:04.659Z,9.70
2022-10-25T21:23:32.058Z,10.75
2022-10-25T21:26:03.639Z,10.23
2022-10-25T21:28:38.728Z,9.13
2022-10-25T21:31:07.652Z,9.45
2022-10-25T21:33:34.160Z,10.18
2022-10-25T21:36:09.536Z,10.10
2022-10-25T21:38:36.209Z,9.40
2022-10-25T21:41:16.976Z,9.50
2022-10-25T21:43:45.535Z,7.20
2022-10-25T21:46:13.008Z,9.68
2022-10-25T21:48:39.498Z,9.25
2022-10-25T21:51:06.220Z,8.30
2022-10-25T21:53:33.302Z,9.18
2022-10-25T21:56:11.194Z,9.75
2022-10-25T21:58:39.099Z,9.80
2022-10-25T22:01:11.090Z,9.88
2022-10-25T22:03:38.558Z,9.07
2022-10-25T22:06:06.738Z,9.80
2022-10-25T22:08:33.503Z,9.30
2022-10-25T22:11:05.404Z,9.77
2022-10-25T22:13:31.912Z,9.60
2022-10-25T22:16:01.666Z,10.07
2022-10-25T22:18:28.394Z,9.25
2022-10-25T22:21:00.668Z,10.50
2022-10-25T22:23:30.229Z,9.98
2022-10-25T22:26:05.314Z,9.13
2022-10-25T22:28:34.341Z,9.02
2022-10-25T22:31:08.580Z,9.05
2022-10-25T22:33:36.080Z,9.88
2022-10-25T22:36:09.962Z,9.07
2022-10-25T22:38:36.821Z,9.35
2022-10-25T22:41:06.633Z,9.68
2022-10-25T22:43:36.877Z,9.27
2022-10-25T22:46:05.819Z,9.00
2022-10-25T22:48:34.939Z,9.10
2022-10-25T22:51:01.437Z,8.98
2022-10-25T22:53:28.419Z,9.48
2022-10-25T22:56:08.210Z,8.98
2022-10-25T22:58:35.554Z,9.35
2022-10-25T23:01:12.960Z,9.43
2022-10-25T23:03:44.487Z,8.73
2022-10-25T23:06:13.563Z,10.38
2022-10-25T23:08:40.531Z,10.05
2022-10-25T23:11:27.906Z,11.85
2022-10-25T23:13:54.342Z,10.02
2022-10-25T23:16:20.880Z,10.45
2022-10-25T23:18:47.368Z,9.88
2022-10-25T23:21:15.897Z,9.50
2022-10-25T23:23:42.774Z,9.70
2022-10-25T23:26:14.506Z,9.65
2022-10-25T23:31:09.902Z,10.60
2022-10-25T23:33:36.691Z,10.23
2022-10-25T23:36:15.429Z,10.02
2022-10-25T23:38:45.034Z,10.73
2022-10-25T23:41:12.211Z,10.23
2022-10-25T23:43:39.266Z,10.98
2022-10-25T23:46:06.468Z,9.82
2022-10-25T23:48:33.264Z,11.65
2022-10-25T23:51:06.123Z,11.05
2022-10-25T23:53:33.319Z,11.18
2022-10-25T23:55:59.795Z,10.63
2022-10-25T23:58:26.679Z,10.70
